createdAt,value
2018-02-20T00:00:29.146Z,83.05
2018-02-20T00:01:29.159Z,83.62
2018-02-20T00:02:29.174Z,83.05
2018-02-20T00:03:29.233Z,83.14
2018-02-20T00:04:29.192Z,83.33
2018-02-20T00:05:28.950Z,83.05
2018-02-20T00:06:29.218Z,83.52
2018-02-20T00:07:29.231Z,83.86
2018-02-20T00:08:29.247Z,83.43
2018-02-20T00:09:29.255Z,83.71
2018-02-20T00:10:29.014Z,84.47
2018-02-20T00:11:29.284Z,84.56
2018-02-20T00:12:29.293Z,84.38
2018-02-20T00:13:29.304Z,84.09
2018-02-20T00:14:29.316Z,84.38
2018-02-20T00:15:29.074Z,84.28
2018-02-20T00:16:29.341Z,84.09
2018-02-20T00:17:29.098Z,84.19
2018-02-20T00:18:29.415Z,84.28
2018-02-20T00:19:29.373Z,84.19
2018-02-20T00:20:29.469Z,84.66
2018-02-20T00:21:29.157Z,84.75
2018-02-20T00:22:29.411Z,84.38
2018-02-20T00:23:29.218Z,84.28
2018-02-20T00:24:29.433Z,83.81
2018-02-20T00:25:29.189Z,83.24
2018-02-20T00:26:29.457Z,82.53
2018-02-20T00:27:29.470Z,83.1
2018-02-20T00:28:29.232Z,83.2
2018-02-20T00:29:29.238Z,82.82
2018-02-20T00:30:29.504Z,82.63
2018-02-20T00:31:29.518Z,82.91
2018-02-20T00:32:29.527Z,83.01
2018-02-20T00:33:29.339Z,83.1
2018-02-20T00:34:29.553Z,83.1
2018-02-20T00:35:29.391Z,83.39
2018-02-20T00:36:29.576Z,83.58
2018-02-20T00:37:29.333Z,83.48
2018-02-20T00:38:29.602Z,84.05
2018-02-20T00:39:29.358Z,83.1
2018-02-20T00:40:29.625Z,83.58
2018-02-20T00:41:29.382Z,83.67
2018-02-20T00:42:29.652Z,83.86
2018-02-20T00:43:29.658Z,83.39
2018-02-20T00:44:29.417Z,83.48
2018-02-20T00:45:29.429Z,83.76
2018-02-20T00:46:29.445Z,83.05
2018-02-20T00:47:29.453Z,83.2
2018-02-20T00:48:29.767Z,83.39
2018-02-20T00:49:29.759Z,82.53
2018-02-20T00:50:29.490Z,82.53
2018-02-20T00:51:29.759Z,82.53
2018-02-20T00:52:29.768Z,82.72
2018-02-20T00:53:29.525Z,82.44
2018-02-20T00:54:29.538Z,82.91
2018-02-20T00:55:29.803Z,82.91
2018-02-20T00:56:29.819Z,83.29
2018-02-20T00:57:29.823Z,83.67
2018-02-20T00:58:29.583Z,83.95
2018-02-20T00:59:29.852Z,84.42
2018-02-20T01:00:29.610Z,84.23
2018-02-20T01:01:29.619Z,84.61
2018-02-20T01:02:29.885Z,85
2018-02-20T01:03:29.954Z,84.52
2018-02-20T01:04:29.910Z,83.76
2018-02-20T01:05:29.924Z,84.33
2018-02-20T01:06:29.930Z,84.52
2018-02-20T01:07:29.946Z,84.05
2018-02-20T01:08:29.961Z,83.95
2018-02-20T01:09:29.975Z,84.14
2018-02-20T01:10:29.980Z,84.9
2018-02-20T01:11:29.992Z,83.67
2018-02-20T01:12:29.999Z,84.05
2018-02-20T01:13:30.017Z,84.05
2018-02-20T01:14:30.029Z,83.67
2018-02-20T01:15:30.039Z,83.76
2018-02-20T01:16:30.051Z,84.14
2018-02-20T01:17:30.064Z,83.76
2018-02-20T01:18:29.870Z,84.05
2018-02-20T01:19:30.090Z,83.86
2018-02-20T01:20:30.119Z,84.14
2018-02-20T01:21:29.855Z,84.14
2018-02-20T01:22:30.123Z,83.67
2018-02-20T01:23:29.878Z,83.76
2018-02-20T01:24:30.148Z,84.05
2018-02-20T01:25:30.160Z,84.71
2018-02-20T01:26:29.916Z,84.33
2018-02-20T01:27:30.186Z,83.67
2018-02-20T01:28:30.192Z,83.95
2018-02-20T01:29:29.952Z,84.05
2018-02-20T01:30:30.214Z,84.61
2018-02-20T01:31:30.233Z,84.05
2018-02-20T01:32:30.241Z,83.86
2018-02-20T01:33:30.048Z,84.71
2018-02-20T01:34:30.271Z,84.81
2018-02-20T01:35:30.278Z,85
2018-02-20T01:36:30.286Z,85
2018-02-20T01:37:30.301Z,84.14
2018-02-20T01:38:30.310Z,83.48
2018-02-20T01:39:30.322Z,83.48
2018-02-20T01:40:30.387Z,83.95
2018-02-20T01:41:30.092Z,83.48
2018-02-20T01:42:30.109Z,84.05
2018-02-20T01:43:30.370Z,84.23
2018-02-20T01:44:30.380Z,84.61
2018-02-20T01:45:30.393Z,85
2018-02-20T01:46:30.413Z,85
2018-02-20T01:47:30.418Z,84.23
2018-02-20T01:48:30.483Z,85
2018-02-20T01:49:30.443Z,84.9
2018-02-20T01:50:30.455Z,84.71
2018-02-20T01:51:30.464Z,85.47
2018-02-20T01:52:30.477Z,85.38
2018-02-20T01:53:30.504Z,84.81
2018-02-20T01:54:30.246Z,85
2018-02-20T01:55:30.259Z,84.14
2018-02-20T01:56:30.273Z,84.05
2018-02-20T01:57:30.535Z,84.23
2018-02-20T01:58:30.294Z,83.95
2018-02-20T01:59:30.560Z,84.33
2018-02-20T02:00:30.571Z,84.42
2018-02-20T02:01:30.584Z,85.09
2018-02-20T02:02:30.392Z,85.19
2018-02-20T02:03:30.614Z,85
2018-02-20T02:04:30.768Z,85
2018-02-20T02:05:30.631Z,84.71
2018-02-20T02:06:30.643Z,84.81
2018-02-20T02:07:30.400Z,84.42
2018-02-20T02:08:30.671Z,84.81
2018-02-20T02:09:30.678Z,84.81
2018-02-20T02:10:30.435Z,85
2018-02-20T02:11:30.705Z,84.9
2018-02-20T02:12:30.457Z,84.81
2018-02-20T02:13:30.726Z,84.33
2018-02-20T02:14:30.736Z,84.33
2018-02-20T02:15:30.757Z,84.71
2018-02-20T02:16:30.758Z,84.42
2018-02-20T02:17:30.771Z,84.42
2018-02-20T02:18:30.785Z,84.81
2018-02-20T02:19:30.846Z,84.42
2018-02-20T02:20:30.809Z,84.81
2018-02-20T02:21:30.818Z,85.28
2018-02-20T02:22:30.832Z,85.09
2018-02-20T02:23:30.844Z,84.9
2018-02-20T02:24:30.869Z,85
2018-02-20T02:25:30.868Z,84.61
2018-02-20T02:26:30.876Z,84.61
2018-02-20T02:27:30.634Z,84.9
2018-02-20T02:28:30.902Z,85.09
2018-02-20T02:29:30.659Z,84.9
2018-02-20T02:30:30.670Z,85
2018-02-20T02:31:30.684Z,84.52
2018-02-20T02:32:30.953Z,83.95
2018-02-20T02:33:30.707Z,84.33
2018-02-20T02:34:31.024Z,84.42
2018-02-20T02:35:30.985Z,85.09
2018-02-20T02:36:30.999Z,84.71
2018-02-20T02:37:30.755Z,85
2018-02-20T02:38:31.024Z,84.81
2018-02-20T02:39:30.778Z,84.71
2018-02-20T02:40:31.045Z,85.09
2018-02-20T02:41:30.800Z,84.33
2018-02-20T02:42:30.814Z,84.81
2018-02-20T02:43:31.083Z,84.9
2018-02-20T02:44:31.091Z,84.81
2018-02-20T02:45:31.100Z,84.9
2018-02-20T02:46:31.117Z,84.9
2018-02-20T02:47:31.128Z,85
2018-02-20T02:48:30.885Z,84.42
2018-02-20T02:49:31.197Z,83.95
2018-02-20T02:50:30.907Z,84.9
2018-02-20T02:51:31.173Z,85.47
2018-02-20T02:52:31.184Z,85.38
2018-02-20T02:53:30.944Z,85.09
2018-02-20T02:54:30.957Z,84.81
2018-02-20T02:55:31.220Z,83.67
2018-02-20T02:56:31.236Z,85
2018-02-20T02:57:31.258Z,85.57
2018-02-20T02:58:31.259Z,85.04
2018-02-20T02:59:31.271Z,84.9
2018-02-20T03:00:31.027Z,84.94
2018-02-20T03:01:31.290Z,85
2018-02-20T03:02:31.055Z,85.19
2018-02-20T03:03:31.324Z,84.81
2018-02-20T03:04:31.390Z,85.04
2018-02-20T03:05:31.087Z,85
2018-02-20T03:06:31.108Z,84.61
2018-02-20T03:07:31.160Z,84.81
2018-02-20T03:08:31.125Z,84.71
2018-02-20T03:09:31.135Z,84.14
2018-02-20T03:10:31.401Z,84.9
2018-02-20T03:11:31.158Z,85
2018-02-20T03:12:31.183Z,85
2018-02-20T03:13:31.183Z,85.09
2018-02-20T03:14:31.454Z,85.28
2018-02-20T03:15:31.460Z,85
2018-02-20T03:16:31.475Z,85.28
2018-02-20T03:17:31.235Z,85.19
2018-02-20T03:18:31.499Z,85.38
2018-02-20T03:19:31.508Z,85.75
2018-02-20T03:20:31.569Z,85.47
2018-02-20T03:21:31.554Z,85.28
2018-02-20T03:22:31.549Z,84.71
2018-02-20T03:23:31.555Z,84.33
2018-02-20T03:24:31.569Z,84.33
2018-02-20T03:25:31.578Z,84.81
2018-02-20T03:26:31.592Z,85
2018-02-20T03:27:31.604Z,84.33
2018-02-20T03:28:31.625Z,84.33
2018-02-20T03:29:31.628Z,84.52
2018-02-20T03:30:31.645Z,85
2018-02-20T03:31:31.654Z,84.81
2018-02-20T03:32:31.664Z,85
2018-02-20T03:33:31.673Z,85
2018-02-20T03:34:31.687Z,84.33
2018-02-20T03:35:31.700Z,84.42
2018-02-20T03:36:31.761Z,83.95
2018-02-20T03:37:31.468Z,84.33
2018-02-20T03:38:31.735Z,84.9
2018-02-20T03:39:31.745Z,85.28
2018-02-20T03:40:31.762Z,84.9
2018-02-20T03:41:31.517Z,84.52
2018-02-20T03:42:31.790Z,84.14
2018-02-20T03:43:31.537Z,84.42
2018-02-20T03:44:31.551Z,83.95
2018-02-20T03:45:31.819Z,83.76
2018-02-20T03:46:31.573Z,83.95
2018-02-20T03:47:31.584Z,83.86
2018-02-20T03:48:31.598Z,82.91
2018-02-20T03:49:31.863Z,83.48
2018-02-20T03:50:31.874Z,83.67
2018-02-20T03:51:31.937Z,83.67
2018-02-20T03:52:31.646Z,83.76
2018-02-20T03:53:31.911Z,84.14
2018-02-20T03:54:31.942Z,84.23
2018-02-20T03:55:31.934Z,84.81
2018-02-20T03:56:31.949Z,84.81
2018-02-20T03:57:31.961Z,84.9
2018-02-20T03:58:31.971Z,83.76
2018-02-20T03:59:31.982Z,84.05
2018-02-20T04:00:31.746Z,84.23
2018-02-20T04:01:32.007Z,82.82
2018-02-20T04:02:32.019Z,83.58
2018-02-20T04:03:31.776Z,84.61
2018-02-20T04:04:31.793Z,84.9
2018-02-20T04:05:32.061Z,83.39
2018-02-20T04:06:31.861Z,83.01
2018-02-20T04:07:31.824Z,83.01
2018-02-20T04:08:31.838Z,83.76
2018-02-20T04:09:32.104Z,84.14
2018-02-20T04:10:32.115Z,83.76
2018-02-20T04:11:32.126Z,84.33
2018-02-20T04:12:31.882Z,83.67
2018-02-20T04:13:32.148Z,83.29
2018-02-20T04:14:31.911Z,83.01
2018-02-20T04:15:32.172Z,83.1
2018-02-20T04:16:32.235Z,82.72
2018-02-20T04:17:31.941Z,83.01
2018-02-20T04:18:31.955Z,83.1
2018-02-20T04:19:31.967Z,83.39
2018-02-20T04:20:31.978Z,83.29
2018-02-20T04:21:31.987Z,83.67
2018-02-20T04:22:31.999Z,83.58
2018-02-20T04:23:32.048Z,83.39
2018-02-20T04:24:32.281Z,83.48
2018-02-20T04:25:32.038Z,83.76
2018-02-20T04:26:32.302Z,83.67
2018-02-20T04:27:32.316Z,84.14
2018-02-20T04:28:32.075Z,83.67
2018-02-20T04:29:32.336Z,84.23
2018-02-20T04:30:32.353Z,83.76
2018-02-20T04:31:32.158Z,83.86
2018-02-20T04:32:32.119Z,83.39
2018-02-20T04:33:32.383Z,83.95
2018-02-20T04:34:32.400Z,83.95
2018-02-20T04:35:32.411Z,84.52
2018-02-20T04:36:32.431Z,83.86
2018-02-20T04:37:32.439Z,83.76
2018-02-20T04:38:32.448Z,83.95
2018-02-20T04:39:32.202Z,84.23
2018-02-20T04:40:32.212Z,84.14
2018-02-20T04:41:32.481Z,84.14
2018-02-20T04:42:32.236Z,83.76
2018-02-20T04:43:32.499Z,84.14
2018-02-20T04:44:32.260Z,83.95
2018-02-20T04:45:32.530Z,83.48
2018-02-20T04:46:32.585Z,83.76
2018-02-20T04:47:32.295Z,84.05
2018-02-20T04:48:32.305Z,84.61
2018-02-20T04:49:32.319Z,84.71
2018-02-20T04:50:32.327Z,84.81
2018-02-20T04:51:32.595Z,84.71
2018-02-20T04:52:32.354Z,84.23
2018-02-20T04:53:32.365Z,83.76
2018-02-20T04:54:32.635Z,83.76
2018-02-20T04:55:32.652Z,84.33
2018-02-20T04:56:32.658Z,84.05
2018-02-20T04:57:32.671Z,83.39
2018-02-20T04:58:32.702Z,84.42
2018-02-20T04:59:32.690Z,84.42
2018-02-20T05:00:32.905Z,84.05
2018-02-20T05:01:32.765Z,84.42
2018-02-20T05:02:32.724Z,84.23
2018-02-20T05:03:32.743Z,83.95
2018-02-20T05:04:32.496Z,83.58
2018-02-20T05:05:32.508Z,83.58
2018-02-20T05:06:32.570Z,83.58
2018-02-20T05:07:32.529Z,83.48
2018-02-20T05:08:32.798Z,83.2
2018-02-20T05:09:32.806Z,83.95
2018-02-20T05:10:32.823Z,84.14
2018-02-20T05:11:32.831Z,84.14
2018-02-20T05:12:32.793Z,82.91
2018-02-20T05:13:32.864Z,82.72
2018-02-20T05:14:32.871Z,83.2
2018-02-20T05:15:32.879Z,83.58
2018-02-20T05:16:32.944Z,83.39
2018-02-20T05:17:32.902Z,83.29
2018-02-20T05:18:32.659Z,83.58
2018-02-20T05:19:32.927Z,83.01
2018-02-20T05:20:32.941Z,83.2
2018-02-20T05:21:32.695Z,82.82
2018-02-20T05:22:32.707Z,82.34
2018-02-20T05:23:32.720Z,83.1
2018-02-20T05:24:32.989Z,83.01
2018-02-20T05:25:32.996Z,83.01
2018-02-20T05:26:33.010Z,83.2
2018-02-20T05:27:32.769Z,82.82
2018-02-20T05:28:33.035Z,83.01
2018-02-20T05:29:33.058Z,83.01
2018-02-20T05:30:33.057Z,83.58
2018-02-20T05:31:33.120Z,83.1
2018-02-20T05:32:33.082Z,83.39
2018-02-20T05:33:33.093Z,83.58
2018-02-20T05:34:33.103Z,83.58
2018-02-20T05:35:33.116Z,83.01
2018-02-20T05:36:33.177Z,82.72
2018-02-20T05:37:33.139Z,83.1
2018-02-20T05:38:33.153Z,83.86
2018-02-20T05:39:33.164Z,83.95
2018-02-20T05:40:33.175Z,84.05
2018-02-20T05:41:33.185Z,83.67
2018-02-20T05:42:33.198Z,84.23
2018-02-20T05:43:33.211Z,83.86
2018-02-20T05:44:33.228Z,83.67
2018-02-20T05:45:33.230Z,83.95
2018-02-20T05:46:33.243Z,83.95
2018-02-20T05:47:33.258Z,84.52
2018-02-20T05:48:33.272Z,84.81
2018-02-20T05:49:33.284Z,84.05
2018-02-20T05:50:33.298Z,85
2018-02-20T05:51:33.412Z,84.9
2018-02-20T05:52:33.062Z,85
2018-02-20T05:53:33.330Z,84.71
2018-02-20T05:54:33.086Z,84.33
2018-02-20T05:55:33.098Z,84.05
2018-02-20T05:56:33.414Z,84.52
2018-02-20T05:57:33.376Z,84.71
2018-02-20T05:58:33.135Z,84.71
2018-02-20T05:59:33.399Z,84.14
2018-02-20T06:00:33.414Z,83.76
2018-02-20T06:01:33.423Z,84.33
2018-02-20T06:02:33.443Z,85
2018-02-20T06:03:33.446Z,84.71
2018-02-20T06:04:33.460Z,84.61
2018-02-20T06:05:33.470Z,85
2018-02-20T06:06:33.479Z,85
2018-02-20T06:07:33.499Z,84.23
2018-02-20T06:08:33.502Z,84.05
2018-02-20T06:09:33.689Z,84.52
2018-02-20T06:10:33.274Z,84.52
2018-02-20T06:11:33.542Z,84.33
2018-02-20T06:12:33.301Z,84.52
2018-02-20T06:13:33.564Z,84.14
2018-02-20T06:14:33.320Z,84.05
2018-02-20T06:15:33.586Z,84.52
2018-02-20T06:16:33.602Z,85
2018-02-20T06:17:33.609Z,84.9
2018-02-20T06:18:33.366Z,84.81
2018-02-20T06:19:33.383Z,84.33
2018-02-20T06:20:33.644Z,84.61
2018-02-20T06:21:33.660Z,85
2018-02-20T06:22:33.416Z,84.81
2018-02-20T06:23:33.680Z,84.05
2018-02-20T06:24:33.490Z,84.14
2018-02-20T06:25:33.715Z,84.52
2018-02-20T06:26:33.747Z,84.42
2018-02-20T06:27:33.728Z,84.33
2018-02-20T06:28:33.485Z,83.76
2018-02-20T06:29:33.755Z,83.48
2018-02-20T06:30:33.770Z,82.91
2018-02-20T06:31:33.777Z,83.1
2018-02-20T06:32:33.534Z,83.01
2018-02-20T06:33:33.808Z,83.39
2018-02-20T06:34:33.610Z,83.67
2018-02-20T06:35:33.824Z,83.58
2018-02-20T06:36:33.585Z,84.1
2018-02-20T06:37:33.855Z,84.23
2018-02-20T06:38:33.858Z,83.86
2018-02-20T06:39:33.617Z,84.14
2018-02-20T06:40:33.890Z,84.23
2018-02-20T06:41:33.897Z,84.48
2018-02-20T06:42:33.906Z,84.71
2018-02-20T06:43:33.920Z,83.76
2018-02-20T06:44:34.030Z,83.95
2018-02-20T06:45:33.940Z,84.05
2018-02-20T06:46:33.953Z,85
2018-02-20T06:47:33.719Z,84.81
2018-02-20T06:48:33.723Z,85
2018-02-20T06:49:34.042Z,84.33
2018-02-20T06:50:33.746Z,83.76
2018-02-20T06:51:33.758Z,84.05
2018-02-20T06:52:34.027Z,85
2018-02-20T06:53:34.035Z,84.81
2018-02-20T06:54:34.046Z,84.14
2018-02-20T06:55:33.803Z,83.95
2018-02-20T06:56:34.108Z,84.61
2018-02-20T06:57:33.829Z,84.42
2018-02-20T06:58:33.843Z,84.52
2018-02-20T06:59:33.875Z,84.52
2018-02-20T07:00:34.120Z,83.76
2018-02-20T07:01:34.136Z,84.14
2018-02-20T07:02:33.889Z,85
2018-02-20T07:03:34.154Z,84.52
2018-02-20T07:04:34.168Z,84.52
2018-02-20T07:05:34.230Z,84.05
2018-02-20T07:06:34.194Z,84.52
2018-02-20T07:07:33.949Z,84.42
2018-02-20T07:08:34.215Z,85
2018-02-20T07:09:34.226Z,84.52
2018-02-20T07:10:34.337Z,85
2018-02-20T07:11:33.997Z,83.95
2018-02-20T07:12:34.259Z,83.67
2018-02-20T07:13:34.280Z,83.48
2018-02-20T07:14:34.289Z,82.72
2018-02-20T07:15:34.045Z,83.48
2018-02-20T07:16:34.310Z,83.67
2018-02-20T07:17:34.422Z,83.29
2018-02-20T07:18:34.332Z,83.95
2018-02-20T07:19:34.355Z,82.72
2018-02-20T07:20:34.413Z,82.72
2018-02-20T07:21:34.121Z,83.1
2018-02-20T07:22:34.388Z,83.1
2018-02-20T07:23:34.399Z,82.53
2018-02-20T07:24:34.412Z,83.01
2018-02-20T07:25:34.423Z,82.63
2018-02-20T07:26:34.183Z,82.34
2018-02-20T07:27:34.296Z,83.29
2018-02-20T07:28:34.459Z,83.58
2018-02-20T07:29:34.467Z,83.67
2018-02-20T07:30:34.501Z,83.76
2018-02-20T07:31:34.528Z,83.48
2018-02-20T07:32:34.507Z,83.48
2018-02-20T07:33:34.522Z,83.76
2018-02-20T07:34:34.538Z,83.39
2018-02-20T07:35:34.614Z,82.91
2018-02-20T07:36:34.559Z,83.95
2018-02-20T07:37:34.564Z,83.95
2018-02-20T07:38:34.578Z,83.76
2018-02-20T07:39:34.593Z,83.58
2018-02-20T07:40:34.610Z,83.86
2018-02-20T07:41:34.359Z,84.33
2018-02-20T07:42:34.628Z,82.91
2018-02-20T07:43:34.385Z,82.72
2018-02-20T07:44:34.670Z,83.1
2018-02-20T07:45:34.406Z,83.29
2018-02-20T07:46:34.674Z,84.33
2018-02-20T07:47:34.684Z,84.52
2018-02-20T07:48:34.695Z,84.14
2018-02-20T07:49:34.710Z,83.76
2018-02-20T07:50:34.722Z,83.95
2018-02-20T07:51:34.786Z,83.95
2018-02-20T07:52:34.495Z,84.42
2018-02-20T07:53:34.765Z,84.14
2018-02-20T07:54:34.767Z,83.76
2018-02-20T07:55:34.786Z,83.48
2018-02-20T07:56:34.565Z,83.2
2018-02-20T07:57:34.804Z,83.29
2018-02-20T07:58:34.819Z,83.67
2018-02-20T07:59:34.829Z,83.39
2018-02-20T08:00:34.845Z,83.1
2018-02-20T08:01:34.855Z,82.91
2018-02-20T08:02:34.865Z,83.2
2018-02-20T08:03:34.886Z,83.1
2018-02-20T08:04:34.892Z,82.53
2018-02-20T08:05:34.989Z,82.95
2018-02-20T08:06:34.993Z,82.95
2018-02-20T08:07:34.935Z,82.76
2018-02-20T08:08:34.946Z,83.24
2018-02-20T08:09:34.958Z,82.39
2018-02-20T08:10:34.964Z,82.39
2018-02-20T08:11:34.979Z,82.01
2018-02-20T08:12:34.992Z,81.92
2018-02-20T08:13:35.003Z,82.29
2018-02-20T08:14:34.763Z,82.39
2018-02-20T08:15:35.028Z,82.48
2018-02-20T08:16:35.039Z,82.57
2018-02-20T08:17:35.058Z,82.48
2018-02-20T08:18:35.067Z,82.06
2018-02-20T08:19:35.078Z,81.92
2018-02-20T08:20:35.112Z,82.06
2018-02-20T08:21:34.852Z,82.01
2018-02-20T08:22:35.166Z,82.15
2018-02-20T08:23:35.131Z,81.12
2018-02-20T08:24:35.142Z,81.4
2018-02-20T08:25:35.153Z,80.93
2018-02-20T08:26:35.165Z,81.96
2018-02-20T08:27:35.178Z,81.15
2018-02-20T08:28:35.188Z,81.92
2018-02-20T08:29:35.203Z,82.01
2018-02-20T08:30:35.215Z,81.25
2018-02-20T08:31:35.229Z,81.34
2018-02-20T08:32:35.238Z,81.25
2018-02-20T08:33:35.256Z,80.58
2018-02-20T08:34:35.013Z,80.87
2018-02-20T08:35:35.277Z,81.53
2018-02-20T08:36:35.295Z,81.72
2018-02-20T08:37:35.352Z,81.25
2018-02-20T08:38:35.318Z,82.2
2018-02-20T08:39:35.073Z,82.2
2018-02-20T08:40:35.092Z,81.44
2018-02-20T08:41:35.351Z,80.68
2018-02-20T08:42:35.388Z,81.53
2018-02-20T08:43:35.380Z,82.01
2018-02-20T08:44:35.393Z,81.34
2018-02-20T08:45:35.407Z,80.87
2018-02-20T08:46:35.433Z,81.34
2018-02-20T08:47:35.176Z,80.44
2018-02-20T08:48:35.444Z,79.58
2018-02-20T08:49:35.457Z,79.87
2018-02-20T08:50:35.472Z,79.02
2018-02-20T08:51:35.485Z,79.58
2018-02-20T08:52:35.544Z,79.21
2018-02-20T08:53:35.513Z,77.59
2018-02-20T08:54:35.574Z,78.26
2018-02-20T08:55:35.282Z,78.35
2018-02-20T08:56:35.293Z,77.97
2018-02-20T08:57:35.307Z,77.88
2018-02-20T08:58:35.574Z,77.59
2018-02-20T08:59:35.332Z,77.69
2018-02-20T09:00:35.601Z,77.69
2018-02-20T09:01:35.611Z,77.69
2018-02-20T09:02:35.629Z,77.97
2018-02-20T09:03:35.665Z,77.12
2018-02-20T09:04:35.655Z,77.12
2018-02-20T09:05:35.665Z,77.22
2018-02-20T09:06:35.683Z,77.03
2018-02-20T09:07:35.491Z,77.12
2018-02-20T09:08:35.708Z,76.65
2018-02-20T09:09:35.720Z,77.5
2018-02-20T09:10:35.736Z,77.78
2018-02-20T09:11:35.492Z,78.45
2018-02-20T09:12:35.762Z,78.45
2018-02-20T09:13:35.522Z,78.64
2018-02-20T09:14:35.789Z,78.64
2018-02-20T09:15:35.803Z,78.64
2018-02-20T09:16:35.813Z,79.49
2018-02-20T09:17:35.830Z,78.35
2018-02-20T09:18:35.584Z,78.73
2018-02-20T09:19:35.600Z,79.3
2018-02-20T09:20:35.611Z,78.73
2018-02-20T09:21:35.885Z,78.83
2018-02-20T09:22:35.897Z,79.58
2018-02-20T09:23:35.954Z,78.45
2018-02-20T09:24:35.917Z,78.07
2018-02-20T09:25:35.930Z,78.16
2018-02-20T09:26:35.943Z,77.69
2018-02-20T09:27:35.704Z,77.69
2018-02-20T09:28:35.718Z,77.83
2018-02-20T09:29:35.986Z,76.87
2018-02-20T09:30:35.998Z,77.73
2018-02-20T09:31:36.013Z,77.73
2018-02-20T09:32:36.026Z,77.45
2018-02-20T09:33:36.086Z,77.59
2018-02-20T09:34:36.051Z,77.59
2018-02-20T09:35:36.069Z,77.5
2018-02-20T09:36:36.076Z,77.97
2018-02-20T09:37:36.087Z,77.4
2018-02-20T09:38:36.155Z,77.97
2018-02-20T09:39:36.116Z,77.97
2018-02-20T09:40:36.139Z,77.88
2018-02-20T09:41:35.890Z,78.16
2018-02-20T09:42:36.158Z,78.73
2018-02-20T09:43:35.919Z,79.49
2018-02-20T09:44:36.186Z,79.39
2018-02-20T09:45:36.198Z,78.35
2018-02-20T09:46:36.214Z,78.64
2018-02-20T09:47:36.223Z,78.54
2018-02-20T09:48:36.237Z,77.4
2018-02-20T09:49:35.996Z,77.78
2018-02-20T09:50:36.012Z,77.97
2018-02-20T09:51:36.025Z,78.45
2018-02-20T09:52:36.289Z,78.45
2018-02-20T09:53:36.362Z,77.69
2018-02-20T09:54:36.318Z,77.22
2018-02-20T09:55:36.078Z,77.4
2018-02-20T09:56:36.342Z,77.97
2018-02-20T09:57:36.104Z,77.73
2018-02-20T09:58:36.375Z,77.64
2018-02-20T09:59:36.389Z,77.06
2018-02-20T10:00:36.144Z,75.74
2018-02-20T10:01:36.412Z,74.79
2018-02-20T10:02:36.472Z,74.41
2018-02-20T10:03:36.440Z,74.47
2018-02-20T10:04:36.450Z,75.13
2018-02-20T10:05:36.215Z,75.23
2018-02-20T10:06:36.480Z,76.55
2018-02-20T10:07:36.498Z,77.03
2018-02-20T10:08:36.306Z,77.22
2018-02-20T10:09:36.521Z,78.07
2018-02-20T10:10:36.532Z,77.06
2018-02-20T10:11:36.292Z,77.88
2018-02-20T10:12:36.304Z,77.54
2018-02-20T10:13:36.626Z,77.78
2018-02-20T10:14:36.591Z,77.78
2018-02-20T10:15:36.600Z,76.97
2018-02-20T10:16:36.616Z,77.03
2018-02-20T10:17:36.630Z,76.68
2018-02-20T10:18:36.689Z,77.78
2018-02-20T10:19:36.402Z,77.92
2018-02-20T10:20:36.669Z,77.92
2018-02-20T10:21:36.684Z,77.25
2018-02-20T10:22:36.442Z,78.11
2018-02-20T10:23:36.712Z,78.77
2018-02-20T10:24:36.469Z,77.06
2018-02-20T10:25:36.740Z,76.74
2018-02-20T10:26:36.497Z,77.31
2018-02-20T10:27:36.765Z,77.16
2018-02-20T10:28:36.777Z,78.02
2018-02-20T10:29:36.536Z,78.02
2018-02-20T10:30:36.806Z,77.35
2018-02-20T10:31:36.828Z,77.73
2018-02-20T10:32:36.831Z,77.35
2018-02-20T10:33:36.639Z,76.87
2018-02-20T10:34:36.857Z,77.06
2018-02-20T10:35:36.869Z,77.54
2018-02-20T10:36:36.631Z,78.2
2018-02-20T10:37:36.895Z,77.54
2018-02-20T10:38:36.913Z,77.25
2018-02-20T10:39:36.924Z,77.54
2018-02-20T10:40:36.936Z,77.25
2018-02-20T10:41:36.954Z,76.78
2018-02-20T10:42:36.964Z,76.78
2018-02-20T10:43:36.725Z,77.92
2018-02-20T10:44:36.736Z,77.73
2018-02-20T10:45:37.004Z,77.45
2018-02-20T10:46:36.764Z,77.92
2018-02-20T10:47:37.030Z,78.02
2018-02-20T10:48:37.097Z,76.87
2018-02-20T10:49:37.060Z,76.68
2018-02-20T10:50:37.073Z,77.06
2018-02-20T10:51:37.085Z,76.97
2018-02-20T10:52:37.096Z,75.93
2018-02-20T10:53:37.114Z,76.21
2018-02-20T10:54:37.124Z,77.25
2018-02-20T10:55:37.136Z,76.78
2018-02-20T10:56:37.151Z,75.45
2018-02-20T10:57:36.913Z,75.17
2018-02-20T10:58:37.189Z,74.03
2018-02-20T10:59:36.938Z,75.07
2018-02-20T11:00:37.210Z,74.32
2018-02-20T11:01:37.231Z,75.84
2018-02-20T11:02:37.235Z,75.45
2018-02-20T11:03:37.308Z,74.88
2018-02-20T11:04:37.264Z,74.51
2018-02-20T11:05:37.281Z,73.94
2018-02-20T11:06:37.042Z,75.36
2018-02-20T11:07:37.053Z,74.88
2018-02-20T11:08:37.320Z,75.93
2018-02-20T11:09:37.347Z,74.6
2018-02-20T11:10:37.347Z,76.25
2018-02-20T11:11:37.108Z,76.34
2018-02-20T11:12:37.122Z,75.59
2018-02-20T11:13:37.235Z,74.26
2018-02-20T11:14:37.149Z,72.55
2018-02-20T11:15:37.420Z,71.89
2018-02-20T11:16:37.431Z,72.17
2018-02-20T11:17:37.450Z,72.84
2018-02-20T11:18:37.257Z,72.64
2018-02-20T11:19:37.220Z,73.03
2018-02-20T11:20:37.488Z,73.79
2018-02-20T11:21:37.248Z,72.45
2018-02-20T11:22:37.523Z,71.98
2018-02-20T11:23:37.278Z,72.74
2018-02-20T11:24:37.543Z,72.27
2018-02-20T11:25:37.572Z,73.22
2018-02-20T11:26:37.579Z,74.07
2018-02-20T11:27:37.604Z,72.64
2018-02-20T11:28:37.349Z,72.36
2018-02-20T11:29:37.616Z,71.8
2018-02-20T11:30:37.377Z,71.32
2018-02-20T11:31:37.643Z,71.22
2018-02-20T11:32:37.406Z,71.6
2018-02-20T11:33:37.726Z,71.41
2018-02-20T11:34:37.692Z,71.51
2018-02-20T11:35:37.447Z,71.41
2018-02-20T11:36:37.463Z,69.99
2018-02-20T11:37:37.733Z,69.99
2018-02-20T11:38:37.816Z,71.22
2018-02-20T11:39:37.508Z,71.6
2018-02-20T11:40:37.771Z,70.21
2018-02-20T11:41:37.538Z,70.65
2018-02-20T11:42:37.804Z,68.41
2018-02-20T11:43:37.824Z,69.9
2018-02-20T11:44:37.834Z,71.22
2018-02-20T11:45:37.847Z,70.31
2018-02-20T11:46:37.606Z,70.12
2018-02-20T11:47:37.884Z,69.17
2018-02-20T11:48:37.992Z,69.99
2018-02-20T11:49:37.906Z,69.46
2018-02-20T11:50:37.666Z,68.7
2018-02-20T11:51:37.940Z,69.27
2018-02-20T11:52:37.951Z,68.89
2018-02-20T11:53:37.963Z,69.08
2018-02-20T11:54:37.980Z,68.23
2018-02-20T11:55:37.998Z,68.7
2018-02-20T11:56:37.756Z,70.03
2018-02-20T11:57:38.026Z,70.03
2018-02-20T11:58:38.039Z,70.12
2018-02-20T11:59:37.804Z,68.51
2018-02-20T12:00:37.817Z,69.55
2018-02-20T12:01:38.084Z,68.98
2018-02-20T12:02:38.108Z,69.27
2018-02-20T12:03:37.912Z,69.17
2018-02-20T12:04:38.131Z,67.4
2018-02-20T12:05:37.891Z,66.08
2018-02-20T12:06:37.905Z,64.84
2018-02-20T12:07:38.179Z,65.03
2018-02-20T12:08:37.955Z,65.41
2018-02-20T12:09:38.203Z,65.79
2018-02-20T12:10:38.220Z,66.61
2018-02-20T12:11:38.240Z,68.07
2018-02-20T12:12:38.249Z,68.07
2018-02-20T12:13:38.265Z,67.21
2018-02-20T12:14:38.283Z,65.5
2018-02-20T12:15:38.294Z,65.98
2018-02-20T12:16:38.384Z,66.55
2018-02-20T12:17:38.074Z,66.83
2018-02-20T12:18:38.395Z,66.46
2018-02-20T12:19:38.102Z,66.93
2018-02-20T12:20:38.375Z,67.59
2018-02-20T12:21:38.133Z,68.73
2018-02-20T12:22:38.404Z,67.88
2018-02-20T12:23:38.166Z,65.5
2018-02-20T12:24:38.431Z,66.36
2018-02-20T12:25:38.450Z,67.12
2018-02-20T12:26:38.464Z,66.64
2018-02-20T12:27:38.476Z,65.6
2018-02-20T12:28:38.241Z,65.95
2018-02-20T12:29:38.520Z,66.8
2018-02-20T12:30:38.521Z,67.56
2018-02-20T12:31:38.285Z,67.18
2018-02-20T12:32:38.299Z,67.08
2018-02-20T12:33:38.622Z,67.5
2018-02-20T12:34:38.584Z,66.46
2018-02-20T12:35:38.598Z,66.89
2018-02-20T12:36:38.359Z,67.12
2018-02-20T12:37:38.631Z,65.85
2018-02-20T12:38:38.391Z,65.37
2018-02-20T12:39:38.665Z,64.75
2018-02-20T12:40:38.674Z,66.52
2018-02-20T12:41:38.436Z,67.08
2018-02-20T12:42:38.704Z,65.69
2018-02-20T12:43:38.719Z,65.28
2018-02-20T12:44:38.477Z,65.56
2018-02-20T12:45:38.504Z,65.66
2018-02-20T12:46:38.762Z,66.14
2018-02-20T12:47:38.522Z,66.04
2018-02-20T12:48:38.841Z,65.47
2018-02-20T12:49:38.555Z,64.71
2018-02-20T12:50:38.823Z,64.9
2018-02-20T12:51:38.847Z,65.56
2018-02-20T12:52:38.852Z,67.75
2018-02-20T12:53:38.926Z,67.08
2018-02-20T12:54:38.880Z,67.18
2018-02-20T12:55:38.898Z,67.85
2018-02-20T12:56:38.911Z,68.23
2018-02-20T12:57:38.675Z,67.56
2018-02-20T12:58:38.947Z,68.89